KAVX/AVX METAR and TAF weather

Enter ICAO airport designator
Station Type Date Time Source
KAVX METAR 2021/09/23 17:51 UTC NOAA

KAVX 231751Z AUTO 23004KT 9SM CLR 26/03 A2998 RMK AO2 SLP119 T02610028 10267 20217 53004


Station Type Date Time Source
KAVX Decoded METAR 2021/09/23 17:51 UTC NOAA

AVALON CATALINA AIRPORT, CA, United States (KAVX) 33-24N 118-25W 482M
Sep 23, 2021 - 01:51 PM EDT / 2021.09.23 1751 UTC
Wind: from the SW (230 degrees) at 5 MPH (4 KT):0
Visibility: 9 mile(s):0
Sky conditions: clear
Temperature: 79.0 F (26.1 C)
Dew Point: 37.0 F (2.8 C)
Relative Humidity: 22%
Pressure (altimeter): 29.98 in. Hg (1015 hPa)
Pressure tendency: 0.01 inches (0.4 hPa) higher than three hours ago
ob: KAVX 231751Z AUTO 23004KT 9SM CLR 26/03 A2998 RMK AO2 SLP119 T02610028 10267 20217 53004
cycle: 18

Station Type Date Time Source
KAVX TAF UTC NOAA

Error!

Example: see airport list